New Holland, South Dakota
Current Conditions -  °F | °C
As of 9:53 AM on Sunday 23 Nov 2014 (Local Time) from KMHE Reporting Station
Broken Clouds Broken Clouds  
Wind Chill:   Ceiling: 9000
Heat Index:   Visibility: 10mi
Dew Point:   Wind: 14mph
Humidity: 68%   Direction: 300°WNW
Pressure: 29.6"   Gusts: NA
Location:  43.43°N, 98.61°W
Report Text: KMHE 231553Z AUTO 30012KT 10SM BKN090 06/01 A2960 RMK AO2 SLP030 T00610006 TSNO $
Loading
Personal Weather Stations






























Interactive Weather Map New forecast layout! Learn more

10-Day Weather Forecast

Advertisements
Track Severe Weather on mobile